createdAt,value
2022-07-29T00:00:14.288Z,21.09
2022-07-29T00:01:19.101Z,21.00
2022-07-29T00:02:21.474Z,20.92
2022-07-29T00:03:23.297Z,20.90
2022-07-29T00:04:25.042Z,20.94
2022-07-29T00:05:26.757Z,21.02
2022-07-29T00:06:28.406Z,21.14
2022-07-29T00:07:30.182Z,21.25
2022-07-29T00:08:31.759Z,21.33
2022-07-29T00:09:33.797Z,21.40
2022-07-29T00:10:43.750Z,21.49
2022-07-29T00:11:45.348Z,21.59
2022-07-29T00:12:46.967Z,21.67
2022-07-29T00:13:51.041Z,21.66
2022-07-29T00:14:57.097Z,21.57
2022-07-29T00:15:58.743Z,21.40
2022-07-29T00:17:06.705Z,21.34
2022-07-29T00:18:08.419Z,21.32
2022-07-29T00:19:10.009Z,21.35
2022-07-29T00:20:12.685Z,21.41
2022-07-29T00:21:14.304Z,21.46
2022-07-29T00:22:16.289Z,21.57
2022-07-29T00:23:17.849Z,21.54
2022-07-29T00:24:19.512Z,21.52
2022-07-29T00:25:21.155Z,21.45
2022-07-29T00:26:22.844Z,21.40
2022-07-29T00:27:24.455Z,21.34
2022-07-29T00:28:26.062Z,21.32
2022-07-29T00:29:35.295Z,21.42
2022-07-29T00:30:37.157Z,21.45
2022-07-29T00:31:38.961Z,21.41
2022-07-29T00:32:40.752Z,21.41
2022-07-29T00:33:42.402Z,21.37
2022-07-29T00:35:02.262Z,21.31
2022-07-29T00:36:04.190Z,21.22
2022-07-29T00:37:05.813Z,21.22
2022-07-29T00:38:09.587Z,21.26
2022-07-29T00:39:11.185Z,21.27
2022-07-29T00:40:13.149Z,21.31
2022-07-29T00:41:14.855Z,21.31
2022-07-29T00:42:17.544Z,21.27
2022-07-29T00:43:19.223Z,21.28
2022-07-29T00:44:20.844Z,21.34
2022-07-29T00:45:23.252Z,21.34
2022-07-29T00:46:25.003Z,21.32
2022-07-29T00:47:26.585Z,21.29
2022-07-29T00:48:28.234Z,21.25
2022-07-29T00:49:29.872Z,21.21
2022-07-29T00:50:33.165Z,21.25
2022-07-29T00:51:38.755Z,21.27
2022-07-29T00:52:42.256Z,21.31
2022-07-29T00:53:43.988Z,21.32
2022-07-29T00:54:45.858Z,21.38
2022-07-29T00:55:48.021Z,21.41
2022-07-29T00:56:50.392Z,21.43
2022-07-29T00:57:53.349Z,21.47
2022-07-29T00:58:56.337Z,21.43
2022-07-29T00:59:58.089Z,21.31
2022-07-29T01:00:59.876Z,21.19
2022-07-29T01:02:01.860Z,21.08
2022-07-29T01:03:03.550Z,20.97
2022-07-29T01:04:07.730Z,21.00
2022-07-29T01:05:10.082Z,21.00
2022-07-29T01:06:11.765Z,21.07
2022-07-29T01:07:14.041Z,21.12
2022-07-29T01:08:16.728Z,21.12
2022-07-29T01:09:19.873Z,21.06
2022-07-29T01:10:40.772Z,21.02
2022-07-29T01:11:44.419Z,21.00
2022-07-29T01:12:48.961Z,21.02
2022-07-29T01:13:50.706Z,20.95
2022-07-29T01:14:54.387Z,20.81
2022-07-29T01:16:00.250Z,20.81
2022-07-29T01:17:13.649Z,20.98
2022-07-29T01:18:25.346Z,21.10
2022-07-29T01:19:42.348Z,21.22
2022-07-29T01:21:12.861Z,21.31
2022-07-29T01:22:36.210Z,21.42
2022-07-29T01:23:50.073Z,21.48
2022-07-29T01:24:51.696Z,21.52
2022-07-29T01:26:15.077Z,21.59
2022-07-29T01:27:52.014Z,21.60
2022-07-29T01:29:07.714Z,21.59
2022-07-29T01:30:10.734Z,21.52
2022-07-29T01:31:25.042Z,21.56
2022-07-29T01:32:32.434Z,21.54
2022-07-29T01:33:50.476Z,21.58
2022-07-29T01:35:04.797Z,21.63
2022-07-29T01:36:15.784Z,21.72
2022-07-29T01:37:28.852Z,21.76
2022-07-29T01:38:30.952Z,21.80
2022-07-29T01:39:36.141Z,21.83
2022-07-29T01:40:48.880Z,21.83
2022-07-29T01:42:08.214Z,21.85
2022-07-29T01:43:17.347Z,21.89
2022-07-29T01:44:30.877Z,21.90
2022-07-29T01:45:40.071Z,21.89
2022-07-29T01:46:50.099Z,21.82
2022-07-29T01:48:14.717Z,21.73
2022-07-29T01:49:22.459Z,21.64
2022-07-29T01:50:34.459Z,21.70
2022-07-29T01:52:01.052Z,21.75
2022-07-29T01:53:07.517Z,21.72
2022-07-29T01:54:19.741Z,21.72
2022-07-29T01:55:26.071Z,21.61
2022-07-29T01:56:34.620Z,21.41
2022-07-29T01:57:38.962Z,21.14
2022-07-29T01:58:43.863Z,20.92
2022-07-29T01:59:47.974Z,20.68
2022-07-29T02:00:51.018Z,20.52
2022-07-29T02:01:55.907Z,20.44
2022-07-29T02:02:59.949Z,20.33
2022-07-29T02:04:06.352Z,20.24
2022-07-29T02:05:11.529Z,20.15
2022-07-29T02:06:20.006Z,20.00
2022-07-29T02:07:24.552Z,19.89
2022-07-29T02:08:27.284Z,19.81
2022-07-29T02:09:30.498Z,19.72
2022-07-29T02:10:34.633Z,19.66
2022-07-29T02:11:38.009Z,19.63
2022-07-29T02:12:41.786Z,19.67
2022-07-29T02:13:45.294Z,19.69
2022-07-29T02:14:50.926Z,19.71
2022-07-29T02:15:54.297Z,19.80
2022-07-29T02:16:59.307Z,19.84
2022-07-29T02:18:10.711Z,19.97
2022-07-29T02:19:14.512Z,20.14
2022-07-29T02:20:17.558Z,20.25
2022-07-29T02:21:25.137Z,20.39
2022-07-29T02:22:29.653Z,20.48
2022-07-29T02:23:45.232Z,20.52
2022-07-29T02:24:54.548Z,20.30
2022-07-29T02:25:58.863Z,20.12
2022-07-29T02:27:02.769Z,19.97
2022-07-29T02:28:06.427Z,19.91
2022-07-29T02:29:10.884Z,19.82
2022-07-29T02:30:13.729Z,19.79
2022-07-29T02:31:17.445Z,19.72
2022-07-29T02:32:20.335Z,19.69
2022-07-29T02:33:23.392Z,19.65
2022-07-29T02:34:26.235Z,19.60
2022-07-29T02:35:28.432Z,19.54
2022-07-29T02:36:37.786Z,19.47
2022-07-29T02:37:40.749Z,19.48
2022-07-29T02:38:54.306Z,19.48
2022-07-29T02:39:56.450Z,19.31
2022-07-29T02:41:01.114Z,19.14
2022-07-29T02:42:06.772Z,19.12
2022-07-29T02:43:10.214Z,19.13
2022-07-29T02:44:20.540Z,19.08
2022-07-29T02:45:22.872Z,19.07
2022-07-29T02:46:35.724Z,18.97
2022-07-29T02:47:50.632Z,18.93
2022-07-29T02:49:14.367Z,18.93
2022-07-29T02:50:28.446Z,18.88
2022-07-29T02:51:41.134Z,18.89
2022-07-29T02:52:52.375Z,18.85
2022-07-29T02:54:02.276Z,18.86
2022-07-29T02:55:16.223Z,18.81
2022-07-29T02:56:21.592Z,18.78
2022-07-29T02:57:33.196Z,18.77
2022-07-29T02:58:48.064Z,18.76
2022-07-29T02:59:54.107Z,18.77
2022-07-29T03:01:23.328Z,18.77
2022-07-29T03:02:27.030Z,18.81
2022-07-29T03:03:37.232Z,18.81
2022-07-29T03:04:42.676Z,18.86
2022-07-29T03:05:44.344Z,18.88
2022-07-29T03:06:47.947Z,18.90
2022-07-29T03:07:55.776Z,18.88
2022-07-29T03:09:00.164Z,18.87
2022-07-29T03:10:02.908Z,18.92
2022-07-29T03:11:05.756Z,18.93
2022-07-29T03:12:07.805Z,18.92
2022-07-29T03:13:11.149Z,18.93
2022-07-29T03:14:13.950Z,18.97
2022-07-29T03:15:16.167Z,19.02
2022-07-29T03:16:20.578Z,19.04
2022-07-29T03:17:22.894Z,19.10
2022-07-29T03:18:25.558Z,19.13
2022-07-29T03:19:28.028Z,19.17
2022-07-29T03:20:29.775Z,19.26
2022-07-29T03:21:31.925Z,19.26
2022-07-29T03:22:33.972Z,19.31
2022-07-29T03:23:36.950Z,19.35
2022-07-29T03:24:39.300Z,19.35
2022-07-29T03:25:41.057Z,19.38
2022-07-29T03:26:42.659Z,19.30
2022-07-29T03:27:45.062Z,19.31
2022-07-29T03:28:46.641Z,19.37
2022-07-29T03:29:49.935Z,19.38
2022-07-29T03:30:52.326Z,19.37
2022-07-29T03:31:54.506Z,19.39
2022-07-29T03:32:56.676Z,19.33
2022-07-29T03:34:00.648Z,19.29
2022-07-29T03:35:03.188Z,19.26
2022-07-29T03:36:04.871Z,19.21
2022-07-29T03:37:07.178Z,19.20
2022-07-29T03:38:09.095Z,19.17
2022-07-29T03:39:12.786Z,19.14
2022-07-29T03:40:37.628Z,19.11
2022-07-29T03:41:42.830Z,19.03
2022-07-29T03:42:45.256Z,18.98
2022-07-29T03:43:49.870Z,18.92
2022-07-29T03:44:55.191Z,18.86
2022-07-29T03:45:58.836Z,18.79
2022-07-29T03:47:03.006Z,18.76
2022-07-29T03:48:10.914Z,18.72
2022-07-29T03:49:13.860Z,18.72
2022-07-29T03:50:17.170Z,18.70
2022-07-29T03:51:18.964Z,18.69
2022-07-29T03:52:36.081Z,18.68
2022-07-29T03:53:38.338Z,18.67
2022-07-29T03:54:40.392Z,18.67
2022-07-29T03:55:45.714Z,18.69
2022-07-29T03:56:53.012Z,18.71
2022-07-29T03:57:57.027Z,18.74
2022-07-29T03:58:59.722Z,18.78
2022-07-29T04:00:04.574Z,18.78
2022-07-29T04:01:07.702Z,18.88
2022-07-29T04:02:11.091Z,18.93
2022-07-29T04:03:13.578Z,18.93
2022-07-29T04:04:18.074Z,18.95
2022-07-29T04:05:20.512Z,18.92
2022-07-29T04:06:22.151Z,18.89
2022-07-29T04:07:23.820Z,18.89
2022-07-29T04:08:25.412Z,18.85
2022-07-29T04:09:27.241Z,18.86
2022-07-29T04:10:31.855Z,18.83
2022-07-29T04:11:34.181Z,18.81
2022-07-29T04:12:55.880Z,18.84
2022-07-29T04:13:57.441Z,18.90
2022-07-29T04:14:59.082Z,18.93
2022-07-29T04:16:00.838Z,18.92
2022-07-29T04:17:04.532Z,18.91
2022-07-29T04:18:07.008Z,18.90
2022-07-29T04:19:08.935Z,18.93
2022-07-29T04:20:13.706Z,18.96
2022-07-29T04:21:15.529Z,19.01
2022-07-29T04:22:17.164Z,19.10
2022-07-29T04:23:18.971Z,19.18
2022-07-29T04:24:21.191Z,19.19
2022-07-29T04:25:22.946Z,19.16
2022-07-29T04:26:24.556Z,19.14
2022-07-29T04:27:26.604Z,19.18
2022-07-29T04:28:28.262Z,19.27
2022-07-29T04:29:29.842Z,19.32
2022-07-29T04:30:32.843Z,19.37
2022-07-29T04:31:34.507Z,19.45
2022-07-29T04:32:36.104Z,19.55
2022-07-29T04:33:37.734Z,19.70
2022-07-29T04:34:39.339Z,19.87
2022-07-29T04:35:49.747Z,20.00
2022-07-29T04:36:53.901Z,20.20
2022-07-29T04:37:55.617Z,20.36
2022-07-29T04:38:57.299Z,20.48
2022-07-29T04:39:58.844Z,20.57
2022-07-29T04:41:00.536Z,20.68
2022-07-29T04:42:02.139Z,20.81
2022-07-29T04:43:05.872Z,20.92
2022-07-29T04:44:08.791Z,21.00
2022-07-29T04:45:10.592Z,21.07
2022-07-29T04:46:12.462Z,21.18
2022-07-29T04:47:14.155Z,21.25
2022-07-29T04:48:15.774Z,21.32
2022-07-29T04:49:17.539Z,21.37
2022-07-29T04:50:19.278Z,21.43
2022-07-29T04:51:20.833Z,21.46
2022-07-29T04:52:22.553Z,21.50
2022-07-29T04:53:24.220Z,21.58
2022-07-29T04:54:25.887Z,21.66
2022-07-29T04:55:28.076Z,21.76
2022-07-29T04:56:29.753Z,21.85
2022-07-29T04:57:31.584Z,21.92
2022-07-29T04:58:36.159Z,21.97
2022-07-29T04:59:37.770Z,22.05
2022-07-29T05:00:40.139Z,22.06
2022-07-29T05:01:41.777Z,22.01
2022-07-29T05:02:44.663Z,21.94
2022-07-29T05:03:46.528Z,21.96
2022-07-29T05:04:48.615Z,22.09
2022-07-29T05:05:50.195Z,22.29
2022-07-29T05:06:51.778Z,22.52
2022-07-29T05:07:53.472Z,22.70
2022-07-29T05:08:55.091Z,22.86
2022-07-29T05:09:58.016Z,23.00
2022-07-29T05:11:01.764Z,23.08
2022-07-29T05:12:13.591Z,23.13
2022-07-29T05:13:15.222Z,23.19
2022-07-29T05:14:17.146Z,23.23
2022-07-29T05:15:19.393Z,23.23
2022-07-29T05:16:21.194Z,23.28
2022-07-29T05:17:23.097Z,23.32
2022-07-29T05:18:25.992Z,23.36
2022-07-29T05:19:27.960Z,23.45
2022-07-29T05:20:31.517Z,23.51
2022-07-29T05:21:33.218Z,23.58
2022-07-29T05:22:34.909Z,23.63
2022-07-29T05:23:36.682Z,23.71
2022-07-29T05:24:38.393Z,23.82
2022-07-29T05:25:43.224Z,23.86
2022-07-29T05:26:46.132Z,23.94
2022-07-29T05:27:47.820Z,24.04
2022-07-29T05:28:52.732Z,24.15
2022-07-29T05:29:54.654Z,24.16
2022-07-29T05:30:57.372Z,24.17
2022-07-29T05:31:59.502Z,24.19
2022-07-29T05:33:01.950Z,24.23
2022-07-29T05:34:03.742Z,24.20
2022-07-29T05:35:05.767Z,24.17
2022-07-29T05:36:08.603Z,24.14
2022-07-29T05:37:10.519Z,24.12
2022-07-29T05:38:12.136Z,24.10
2022-07-29T05:39:14.168Z,24.04
2022-07-29T05:40:15.780Z,23.89
2022-07-29T05:41:17.684Z,23.83
2022-07-29T05:42:19.470Z,23.83
2022-07-29T05:43:21.942Z,23.83
2022-07-29T05:44:25.381Z,23.77
2022-07-29T05:45:27.239Z,23.71
2022-07-29T05:46:29.199Z,23.66
2022-07-29T05:47:31.465Z,23.60
2022-07-29T05:48:33.384Z,23.53
2022-07-29T05:49:35.058Z,23.45
2022-07-29T05:50:36.646Z,23.45
2022-07-29T05:51:46.148Z,23.60
2022-07-29T05:52:47.789Z,23.85
2022-07-29T05:53:51.530Z,23.97
2022-07-29T05:54:53.353Z,24.07
2022-07-29T05:55:55.004Z,24.18
2022-07-29T05:56:56.778Z,24.36
2022-07-29T05:57:58.378Z,24.49
2022-07-29T05:59:00.037Z,24.64
2022-07-29T06:00:01.941Z,24.81
2022-07-29T06:01:04.390Z,25.01
2022-07-29T06:02:06.333Z,25.20
2022-07-29T06:03:08.011Z,25.33
2022-07-29T06:04:09.688Z,25.45
2022-07-29T06:05:15.595Z,25.59
2022-07-29T06:06:18.883Z,25.68
2022-07-29T06:07:20.851Z,25.80
2022-07-29T06:08:22.499Z,25.92
2022-07-29T06:09:24.419Z,25.81
2022-07-29T06:10:26.958Z,25.67
2022-07-29T06:11:28.851Z,25.65
2022-07-29T06:12:30.450Z,25.64
2022-07-29T06:13:32.846Z,25.64
2022-07-29T06:14:34.483Z,25.76
2022-07-29T06:15:36.390Z,25.82
2022-07-29T06:16:38.135Z,26.01
2022-07-29T06:17:39.835Z,26.23
2022-07-29T06:19:01.583Z,26.22
2022-07-29T06:20:04.238Z,26.26
2022-07-29T06:21:09.680Z,26.36
2022-07-29T06:22:11.353Z,26.44
2022-07-29T06:23:13.310Z,26.54
2022-07-29T06:24:16.831Z,26.56
2022-07-29T06:25:18.700Z,26.47
2022-07-29T06:26:30.684Z,26.32
2022-07-29T06:27:33.639Z,26.03
2022-07-29T06:28:37.368Z,25.88
2022-07-29T06:29:39.082Z,25.85
2022-07-29T06:30:40.887Z,25.93
2022-07-29T06:31:42.546Z,26.08
2022-07-29T06:32:44.153Z,26.21
2022-07-29T06:33:45.762Z,26.36
2022-07-29T06:34:48.958Z,26.46
2022-07-29T06:35:53.704Z,26.36
2022-07-29T06:36:57.110Z,26.16
2022-07-29T06:37:59.742Z,26.06
2022-07-29T06:39:02.814Z,25.95
2022-07-29T06:40:24.224Z,25.87
2022-07-29T06:41:25.840Z,25.94
2022-07-29T06:42:27.492Z,25.93
2022-07-29T06:43:32.716Z,26.04
2022-07-29T06:44:34.944Z,26.12
2022-07-29T06:45:36.607Z,26.26
2022-07-29T06:46:38.427Z,26.46
2022-07-29T06:47:40.100Z,26.54
2022-07-29T06:48:43.449Z,26.74
2022-07-29T06:49:45.083Z,26.84
2022-07-29T06:50:46.838Z,26.83
2022-07-29T06:51:48.481Z,26.74
2022-07-29T06:52:50.075Z,26.65
2022-07-29T06:53:59.822Z,26.56
2022-07-29T06:55:04.528Z,26.72
2022-07-29T06:56:09.745Z,26.67
2022-07-29T06:57:11.386Z,26.66
2022-07-29T06:58:15.150Z,26.63
2022-07-29T06:59:16.771Z,26.65
2022-07-29T07:00:18.470Z,26.65
2022-07-29T07:01:21.071Z,26.72
2022-07-29T07:02:24.001Z,26.81
2022-07-29T07:03:25.898Z,26.95
2022-07-29T07:04:27.590Z,27.06
2022-07-29T07:05:29.672Z,27.14
2022-07-29T07:06:31.576Z,27.26
2022-07-29T07:07:33.634Z,27.43
2022-07-29T07:08:35.268Z,27.58
2022-07-29T07:09:40.578Z,27.73
2022-07-29T07:10:43.532Z,27.66
2022-07-29T07:11:45.097Z,27.80
2022-07-29T07:12:51.222Z,27.96
2022-07-29T07:13:52.818Z,27.99
2022-07-29T07:14:54.497Z,28.03
2022-07-29T07:15:56.182Z,28.18
2022-07-29T07:16:57.920Z,28.29
2022-07-29T07:18:00.482Z,28.42
2022-07-29T07:19:02.074Z,28.41
2022-07-29T07:20:05.168Z,28.22
2022-07-29T07:21:06.967Z,28.37
2022-07-29T07:22:08.670Z,28.59
2022-07-29T07:23:10.279Z,28.85
2022-07-29T07:24:11.974Z,28.91
2022-07-29T07:25:14.012Z,28.90
2022-07-29T07:26:15.935Z,28.92
2022-07-29T07:27:17.570Z,28.91
2022-07-29T07:28:24.595Z,28.99
2022-07-29T07:29:26.782Z,29.16
2022-07-29T07:30:28.920Z,29.30
2022-07-29T07:31:31.002Z,29.17
2022-07-29T07:32:34.019Z,29.19
2022-07-29T07:33:35.585Z,29.35
2022-07-29T07:34:38.949Z,29.46
2022-07-29T07:35:41.185Z,29.41
2022-07-29T07:36:42.903Z,29.28
2022-07-29T07:37:44.689Z,29.10
2022-07-29T07:38:46.378Z,29.10
2022-07-29T07:39:47.997Z,29.09
2022-07-29T07:40:49.757Z,29.19
2022-07-29T07:41:51.345Z,29.13
2022-07-29T07:42:53.030Z,29.08
2022-07-29T07:43:54.622Z,28.80
2022-07-29T07:45:12.572Z,28.28
2022-07-29T07:46:15.791Z,28.21
2022-07-29T07:47:24.554Z,28.25
2022-07-29T07:48:29.714Z,28.22
2022-07-29T07:49:32.177Z,28.29
2022-07-29T07:50:34.012Z,28.55
2022-07-29T07:51:35.752Z,28.83
2022-07-29T07:52:51.133Z,29.05
2022-07-29T07:53:53.653Z,29.13
2022-07-29T07:54:55.671Z,29.22
2022-07-29T07:56:13.041Z,29.31
2022-07-29T07:57:15.877Z,29.29
2022-07-29T07:58:17.468Z,29.37
2022-07-29T07:59:19.062Z,29.45
2022-07-29T08:00:23.051Z,29.39
2022-07-29T08:01:25.539Z,29.39
2022-07-29T08:02:27.342Z,29.50
2022-07-29T08:03:29.003Z,29.52
2022-07-29T08:04:30.707Z,29.72
2022-07-29T08:05:32.487Z,29.82
2022-07-29T08:06:38.657Z,29.96
2022-07-29T08:07:40.347Z,29.79
2022-07-29T08:08:42.438Z,29.50
2022-07-29T08:09:44.155Z,29.56
2022-07-29T08:10:54.884Z,29.63
2022-07-29T08:11:57.705Z,29.32
2022-07-29T08:12:59.321Z,29.24
2022-07-29T08:14:02.361Z,29.45
2022-07-29T08:15:04.392Z,29.61
2022-07-29T08:16:14.338Z,29.71
2022-07-29T08:17:16.051Z,29.83
2022-07-29T08:18:17.641Z,29.78
2022-07-29T08:19:19.378Z,29.87
2022-07-29T08:20:21.022Z,29.81
2022-07-29T08:21:22.629Z,29.82
2022-07-29T08:22:24.294Z,29.83
2022-07-29T08:23:31.573Z,29.84
2022-07-29T08:24:53.476Z,29.90
2022-07-29T08:25:57.265Z,29.93
2022-07-29T08:26:59.326Z,30.06
2022-07-29T08:28:00.910Z,30.13
2022-07-29T08:29:02.480Z,30.12
2022-07-29T08:30:04.486Z,30.05
2022-07-29T08:31:07.236Z,30.03
2022-07-29T08:32:08.908Z,30.19
2022-07-29T08:33:10.671Z,30.28
2022-07-29T08:34:13.053Z,30.33
2022-07-29T08:35:14.699Z,30.41
2022-07-29T08:36:16.339Z,30.46
2022-07-29T08:37:18.067Z,30.49
2022-07-29T08:38:19.718Z,30.42
2022-07-29T08:39:21.407Z,30.26
2022-07-29T08:40:30.516Z,30.32
2022-07-29T08:41:34.260Z,30.37
2022-07-29T08:42:36.947Z,30.35
2022-07-29T08:43:42.044Z,30.22
2022-07-29T08:44:43.831Z,30.21
2022-07-29T08:45:48.597Z,30.33
2022-07-29T08:46:51.275Z,30.28
2022-07-29T08:47:53.701Z,30.19
2022-07-29T08:48:56.476Z,30.17
2022-07-29T08:49:58.573Z,30.27
2022-07-29T08:51:01.726Z,30.28
2022-07-29T08:52:04.227Z,30.24
2022-07-29T08:53:08.248Z,30.10
2022-07-29T08:54:11.102Z,30.16
2022-07-29T08:55:15.945Z,30.24
2022-07-29T08:56:23.621Z,30.32
2022-07-29T08:57:26.553Z,30.48
2022-07-29T08:58:33.171Z,30.39
2022-07-29T08:59:43.607Z,30.29
2022-07-29T09:00:53.196Z,30.35
2022-07-29T09:02:00.616Z,30.48
2022-07-29T09:03:04.027Z,30.45
2022-07-29T09:04:10.964Z,30.27
2022-07-29T09:05:12.640Z,30.35
2022-07-29T09:06:16.047Z,30.37
2022-07-29T09:07:19.725Z,30.45
2022-07-29T09:08:21.559Z,30.56
2022-07-29T09:09:23.450Z,30.58
2022-07-29T09:10:25.544Z,30.57
2022-07-29T09:11:28.253Z,30.53
2022-07-29T09:12:36.076Z,30.53
2022-07-29T09:13:39.567Z,30.48
2022-07-29T09:14:41.645Z,30.50
2022-07-29T09:15:43.438Z,30.43
2022-07-29T09:16:54.956Z,30.63
2022-07-29T09:17:57.676Z,30.72
2022-07-29T09:18:59.295Z,30.80
2022-07-29T09:20:11.284Z,30.89
2022-07-29T09:21:34.296Z,31.01
2022-07-29T09:22:40.096Z,31.02
2022-07-29T09:24:01.504Z,30.87
2022-07-29T09:25:03.146Z,30.79
2022-07-29T09:26:06.941Z,30.83
2022-07-29T09:27:27.620Z,30.88
2022-07-29T09:28:29.347Z,30.94
2022-07-29T09:29:34.490Z,31.01
2022-07-29T09:30:52.501Z,31.21
2022-07-29T09:31:56.156Z,31.25
2022-07-29T09:33:02.638Z,31.29
2022-07-29T09:34:05.485Z,31.18
2022-07-29T09:35:22.984Z,31.09
2022-07-29T09:36:24.761Z,30.83
2022-07-29T09:37:30.055Z,30.92
2022-07-29T09:38:32.375Z,31.13
2022-07-29T09:39:47.327Z,31.17
2022-07-29T09:40:59.787Z,31.23
2022-07-29T09:42:08.309Z,31.28
2022-07-29T09:43:14.393Z,31.36
2022-07-29T09:44:16.833Z,31.43
2022-07-29T09:45:29.395Z,31.42
2022-07-29T09:46:31.146Z,31.36
2022-07-29T09:47:46.149Z,31.36
2022-07-29T09:49:07.590Z,31.37
2022-07-29T09:50:10.674Z,31.45
2022-07-29T09:51:24.138Z,31.42
2022-07-29T09:52:31.310Z,31.01
2022-07-29T09:53:35.796Z,30.83
2022-07-29T09:54:38.012Z,30.79
2022-07-29T09:55:52.999Z,31.12
2022-07-29T09:56:56.144Z,31.31
2022-07-29T09:58:17.327Z,31.43
2022-07-29T09:59:19.048Z,31.45
2022-07-29T10:00:23.913Z,31.54
2022-07-29T10:01:30.115Z,31.60
2022-07-29T10:02:33.698Z,31.61
2022-07-29T10:03:52.876Z,31.65
2022-07-29T10:04:54.572Z,31.72
2022-07-29T10:06:07.436Z,31.79
2022-07-29T10:07:10.190Z,31.72
2022-07-29T10:08:16.149Z,31.72
2022-07-29T10:09:17.830Z,31.66
2022-07-29T10:10:38.288Z,31.69
2022-07-29T10:11:49.327Z,31.69
2022-07-29T10:13:06.191Z,31.78
2022-07-29T10:14:09.673Z,31.84
2022-07-29T10:15:11.683Z,31.81
2022-07-29T10:16:14.474Z,31.79
2022-07-29T10:17:17.151Z,31.72
2022-07-29T10:18:21.008Z,31.72
2022-07-29T10:19:23.120Z,31.69
2022-07-29T10:20:25.708Z,31.78
2022-07-29T10:21:35.569Z,31.81
2022-07-29T10:22:54.212Z,31.93
2022-07-29T10:23:59.565Z,32.04
2022-07-29T10:25:03.228Z,32.11
2022-07-29T10:26:05.499Z,32.03
2022-07-29T10:27:09.254Z,32.05
2022-07-29T10:28:15.767Z,32.07
2022-07-29T10:29:18.015Z,32.06
2022-07-29T10:30:21.516Z,32.10
2022-07-29T10:31:38.448Z,32.22
2022-07-29T10:33:01.307Z,32.36
2022-07-29T10:34:11.660Z,32.32
2022-07-29T10:35:22.528Z,32.10
2022-07-29T10:36:33.170Z,31.98
2022-07-29T10:37:37.558Z,31.87
2022-07-29T10:38:54.008Z,31.71
2022-07-29T10:40:28.075Z,31.68
2022-07-29T10:41:47.692Z,31.86
2022-07-29T10:42:51.006Z,31.93
2022-07-29T10:43:56.003Z,31.89
2022-07-29T10:44:58.240Z,31.91
2022-07-29T10:46:02.150Z,31.97
2022-07-29T10:47:03.927Z,32.09
2022-07-29T10:48:07.955Z,32.15
2022-07-29T10:49:16.384Z,32.19
2022-07-29T10:50:18.085Z,32.26
2022-07-29T10:51:19.900Z,32.35
2022-07-29T10:52:30.090Z,32.17
2022-07-29T10:53:53.491Z,31.72
2022-07-29T10:54:56.352Z,31.67
2022-07-29T10:55:58.139Z,31.66
2022-07-29T10:57:25.665Z,31.88
2022-07-29T10:58:52.777Z,32.08
2022-07-29T11:00:06.873Z,32.16
2022-07-29T11:01:37.725Z,32.08
2022-07-29T11:02:43.684Z,32.17
2022-07-29T11:03:50.740Z,32.22
2022-07-29T11:04:54.149Z,32.28
2022-07-29T11:05:59.551Z,32.38
2022-07-29T11:07:03.818Z,32.49
2022-07-29T11:08:19.678Z,32.53
2022-07-29T11:09:35.328Z,32.52
2022-07-29T11:10:40.945Z,32.59
2022-07-29T11:11:44.127Z,32.62
2022-07-29T11:12:59.900Z,32.62
2022-07-29T11:14:02.115Z,32.42
2022-07-29T11:15:18.287Z,32.50
2022-07-29T11:16:25.168Z,32.58
2022-07-29T11:17:27.547Z,32.64
2022-07-29T11:19:13.825Z,32.74
2022-07-29T11:20:34.173Z,32.77
2022-07-29T11:22:00.348Z,32.84
2022-07-29T11:23:02.432Z,32.80
2022-07-29T11:24:18.727Z,32.69
2022-07-29T11:25:42.574Z,32.79
2022-07-29T11:27:14.469Z,32.97
2022-07-29T11:28:25.188Z,33.03
2022-07-29T11:29:27.519Z,33.03
2022-07-29T11:30:52.127Z,33.05
2022-07-29T11:32:10.211Z,32.96
2022-07-29T11:33:54.773Z,33.07
2022-07-29T11:35:37.653Z,33.14
2022-07-29T11:37:06.359Z,33.02
2022-07-29T11:39:54.337Z,32.53
2022-07-29T11:41:23.568Z,32.67
2022-07-29T11:42:28.276Z,32.79
2022-07-29T11:43:54.939Z,32.95
2022-07-29T11:45:09.254Z,33.05
2022-07-29T11:46:48.133Z,33.17
2022-07-29T11:47:53.404Z,33.24
2022-07-29T11:48:55.551Z,33.23
2022-07-29T11:50:00.287Z,33.12
2022-07-29T11:51:11.216Z,33.00
2022-07-29T11:52:15.252Z,32.72
2022-07-29T11:53:17.195Z,32.51
2022-07-29T11:54:27.846Z,32.43
2022-07-29T11:55:32.516Z,32.43
2022-07-29T11:56:40.153Z,32.59
2022-07-29T11:58:03.793Z,32.74
2022-07-29T12:00:33.958Z,32.87
2022-07-29T12:01:36.737Z,33.01
2022-07-29T12:02:43.515Z,33.09
2022-07-29T12:04:03.943Z,33.23
2022-07-29T12:06:32.209Z,33.47
2022-07-29T12:07:35.748Z,33.54
2022-07-29T12:08:43.579Z,33.59
2022-07-29T12:09:56.976Z,33.62
2022-07-29T12:10:58.720Z,33.63
2022-07-29T12:12:05.259Z,33.59
2022-07-29T12:13:08.448Z,33.64
2022-07-29T12:14:27.842Z,33.67
2022-07-29T12:15:45.709Z,33.66
2022-07-29T12:16:48.747Z,33.63
2022-07-29T12:17:50.767Z,33.68
2022-07-29T12:19:04.108Z,33.69
2022-07-29T12:20:06.457Z,33.72
2022-07-29T12:21:12.433Z,33.62
2022-07-29T12:22:29.524Z,33.33
2022-07-29T12:23:35.442Z,33.26
2022-07-29T12:24:46.117Z,33.12
2022-07-29T12:25:49.861Z,33.07
2022-07-29T12:26:52.945Z,33.10
2022-07-29T12:28:01.979Z,33.08
2022-07-29T12:29:04.133Z,33.16
2022-07-29T12:30:17.374Z,33.30
2022-07-29T12:31:42.273Z,33.40
2022-07-29T12:32:48.990Z,33.54
2022-07-29T12:33:54.717Z,33.61
2022-07-29T12:34:57.272Z,33.51
2022-07-29T12:36:12.884Z,33.56
2022-07-29T12:37:19.404Z,33.60
2022-07-29T12:38:32.982Z,33.65
2022-07-29T12:39:34.702Z,33.73
2022-07-29T12:40:36.314Z,33.73
2022-07-29T12:41:38.449Z,33.85
2022-07-29T12:42:40.864Z,33.93
2022-07-29T12:43:56.685Z,33.93
2022-07-29T12:44:58.890Z,34.03
2022-07-29T12:46:16.381Z,34.10
2022-07-29T12:47:20.153Z,34.04
2022-07-29T12:48:39.032Z,33.94
2022-07-29T12:49:40.752Z,33.89
2022-07-29T12:50:56.802Z,33.82
2022-07-29T12:51:58.629Z,33.83
2022-07-29T12:53:14.653Z,33.83
2022-07-29T12:54:19.303Z,33.77
2022-07-29T12:55:45.298Z,33.73
2022-07-29T12:56:46.887Z,33.67
2022-07-29T12:57:51.597Z,33.61
2022-07-29T12:58:53.261Z,33.74
2022-07-29T13:00:11.006Z,33.81
2022-07-29T13:01:16.855Z,33.94
2022-07-29T13:02:26.098Z,33.96
2022-07-29T13:03:28.097Z,34.04
2022-07-29T13:04:32.509Z,34.11
2022-07-29T13:05:59.944Z,34.11
2022-07-29T13:07:04.908Z,34.16
2022-07-29T13:08:20.406Z,34.21
2022-07-29T13:09:25.262Z,34.23
2022-07-29T13:10:27.076Z,34.31
2022-07-29T13:11:34.242Z,34.41
2022-07-29T13:12:36.023Z,34.43
2022-07-29T13:14:05.878Z,34.38
2022-07-29T13:15:16.360Z,34.36
2022-07-29T13:16:17.978Z,34.20
2022-07-29T13:17:28.685Z,34.11
2022-07-29T13:18:38.988Z,34.12
2022-07-29T13:19:48.291Z,33.86
2022-07-29T13:20:50.137Z,33.74
2022-07-29T13:21:51.755Z,33.60
2022-07-29T13:22:53.459Z,33.54
2022-07-29T13:23:55.046Z,33.53
2022-07-29T13:24:58.717Z,33.68
2022-07-29T13:26:10.476Z,33.85
2022-07-29T13:27:12.087Z,33.91
2022-07-29T13:28:13.683Z,34.01
2022-07-29T13:29:15.281Z,34.04
2022-07-29T13:30:16.967Z,34.08
2022-07-29T13:31:18.590Z,34.13
2022-07-29T13:32:28.336Z,34.21
2022-07-29T13:33:31.203Z,34.31
2022-07-29T13:34:32.802Z,34.31
2022-07-29T13:35:34.811Z,34.32
2022-07-29T13:36:41.838Z,34.29
2022-07-29T13:37:43.672Z,34.29
2022-07-29T13:38:47.929Z,34.30
2022-07-29T13:39:53.263Z,34.29
2022-07-29T13:40:55.109Z,34.32
2022-07-29T13:41:57.483Z,34.35
2022-07-29T13:42:59.337Z,34.32
2022-07-29T13:44:00.966Z,34.30
2022-07-29T13:45:03.308Z,34.38
2022-07-29T13:46:05.496Z,34.32
2022-07-29T13:47:08.683Z,34.33
2022-07-29T13:48:10.459Z,34.42
2022-07-29T13:49:12.409Z,34.41
2022-07-29T13:50:14.432Z,34.38
2022-07-29T13:51:16.092Z,34.35
2022-07-29T13:52:18.267Z,34.32
2022-07-29T13:53:19.974Z,34.20
2022-07-29T13:54:28.803Z,34.15
2022-07-29T13:55:30.608Z,34.08
2022-07-29T13:56:35.201Z,33.95
2022-07-29T13:57:36.827Z,33.95
2022-07-29T13:58:38.897Z,33.93
2022-07-29T13:59:41.827Z,34.05
2022-07-29T14:00:43.566Z,34.15
2022-07-29T14:01:45.567Z,34.23
2022-07-29T14:02:49.124Z,34.23
2022-07-29T14:03:50.894Z,34.29
2022-07-29T14:04:52.880Z,34.36
2022-07-29T14:05:55.064Z,34.39
2022-07-29T14:06:56.646Z,34.44
2022-07-29T14:07:58.864Z,34.46
2022-07-29T14:09:00.534Z,34.53
2022-07-29T14:10:02.226Z,34.50
2022-07-29T14:11:04.249Z,34.47